sensor_id;sensor_type;location;lat;lon;timestamp;P1;durP1;ratioP1;P2;durP2;ratioP2
26702;SDS011;14316;51.074;3.704;2023-07-13T00:01:26;10.43;;;3.42;;
26702;SDS011;14316;51.074;3.704;2023-07-13T00:03:51;7.63;;;3.22;;
26702;SDS011;14316;51.074;3.704;2023-07-13T00:06:17;9.82;;;3.03;;
26702;SDS011;14316;51.074;3.704;2023-07-13T00:08:45;14.90;;;3.75;;
26702;SDS011;14316;51.074;3.704;2023-07-13T00:11:12;7.53;;;3.28;;
26702;SDS011;14316;51.074;3.704;2023-07-13T00:13:38;12.20;;;3.85;;
26702;SDS011;14316;51.074;3.704;2023-07-13T00:16:04;11.88;;;3.83;;
26702;SDS011;14316;51.074;3.704;2023-07-13T00:18:31;9.35;;;3.22;;
26702;SDS011;14316;51.074;3.704;2023-07-13T00:20:57;14.48;;;3.15;;
26702;SDS011;14316;51.074;3.704;2023-07-13T00:23:30;9.45;;;3.15;;
26702;SDS011;14316;51.074;3.704;2023-07-13T00:26:00;11.45;;;3.92;;
26702;SDS011;14316;51.074;3.704;2023-07-13T00:28:30;11.55;;;3.42;;
26702;SDS011;14316;51.074;3.704;2023-07-13T00:30:58;10.27;;;3.58;;
26702;SDS011;14316;51.074;3.704;2023-07-13T00:33:24;16.30;;;3.88;;
26702;SDS011;14316;51.074;3.704;2023-07-13T00:35:51;9.98;;;3.75;;
26702;SDS011;14316;51.074;3.704;2023-07-13T00:38:18;10.38;;;3.70;;
26702;SDS011;14316;51.074;3.704;2023-07-13T00:40:44;11.02;;;3.50;;
26702;SDS011;14316;51.074;3.704;2023-07-13T00:43:14;10.82;;;3.90;;
26702;SDS011;14316;51.074;3.704;2023-07-13T00:48:14;11.73;;;4.28;;
26702;SDS011;14316;51.074;3.704;2023-07-13T00:50:44;12.73;;;4.20;;
26702;SDS011;14316;51.074;3.704;2023-07-13T00:53:14;12.80;;;4.10;;
26702;SDS011;14316;51.074;3.704;2023-07-13T00:55:41;15.20;;;4.20;;
26702;SDS011;14316;51.074;3.704;2023-07-13T00:58:07;14.95;;;4.45;;
26702;SDS011;14316;51.074;3.704;2023-07-13T01:00:36;15.45;;;4.53;;
26702;SDS011;14316;51.074;3.704;2023-07-13T01:03:03;13.10;;;4.25;;
26702;SDS011;14316;51.074;3.704;2023-07-13T01:05:30;12.88;;;4.68;;
26702;SDS011;14316;51.074;3.704;2023-07-13T01:07:58;15.73;;;4.22;;
26702;SDS011;14316;51.074;3.704;2023-07-13T01:10:26;14.25;;;4.40;;
26702;SDS011;14316;51.074;3.704;2023-07-13T01:12:52;19.02;;;5.00;;
26702;SDS011;14316;51.074;3.704;2023-07-13T01:15:42;14.90;;;4.72;;
26702;SDS011;14316;51.074;3.704;2023-07-13T01:18:10;13.70;;;4.07;;
26702;SDS011;14316;51.074;3.704;2023-07-13T01:20:41;13.07;;;4.28;;
26702;SDS011;14316;51.074;3.704;2023-07-13T01:23:17;11.90;;;4.20;;
26702;SDS011;14316;51.074;3.704;2023-07-13T01:25:44;15.48;;;5.22;;
26702;SDS011;14316;51.074;3.704;2023-07-13T01:28:09;12.77;;;5.00;;
26702;SDS011;14316;51.074;3.704;2023-07-13T01:30:36;12.85;;;4.72;;
26702;SDS011;14316;51.074;3.704;2023-07-13T01:33:05;12.50;;;4.40;;
26702;SDS011;14316;51.074;3.704;2023-07-13T01:35:32;17.63;;;5.18;;
26702;SDS011;14316;51.074;3.704;2023-07-13T01:37:58;16.52;;;4.30;;
26702;SDS011;14316;51.074;3.704;2023-07-13T01:40:26;13.02;;;4.75;;
26702;SDS011;14316;51.074;3.704;2023-07-13T01:42:52;14.07;;;4.55;;
26702;SDS011;14316;51.074;3.704;2023-07-13T01:45:18;20.75;;;5.05;;
26702;SDS011;14316;51.074;3.704;2023-07-13T01:47:43;16.02;;;5.05;;
26702;SDS011;14316;51.074;3.704;2023-07-13T01:50:09;13.25;;;4.43;;
26702;SDS011;14316;51.074;3.704;2023-07-13T01:52:35;15.35;;;4.68;;
26702;SDS011;14316;51.074;3.704;2023-07-13T01:55:01;19.88;;;5.15;;
26702;SDS011;14316;51.074;3.704;2023-07-13T01:57:27;14.90;;;4.95;;
26702;SDS011;14316;51.074;3.704;2023-07-13T01:59:53;18.50;;;5.25;;
26702;SDS011;14316;51.074;3.704;2023-07-13T02:02:19;13.73;;;5.13;;
26702;SDS011;14316;51.074;3.704;2023-07-13T02:04:45;17.27;;;5.88;;
26702;SDS011;14316;51.074;3.704;2023-07-13T02:07:10;18.08;;;5.53;;
26702;SDS011;14316;51.074;3.704;2023-07-13T02:09:36;16.13;;;5.45;;
26702;SDS011;14316;51.074;3.704;2023-07-13T02:12:02;19.67;;;6.07;;
26702;SDS011;14316;51.074;3.704;2023-07-13T02:14:28;11.90;;;4.90;;
26702;SDS011;14316;51.074;3.704;2023-07-13T02:16:54;18.83;;;5.95;;
26702;SDS011;14316;51.074;3.704;2023-07-13T02:19:19;12.80;;;5.25;;
26702;SDS011;14316;51.074;3.704;2023-07-13T02:21:46;21.65;;;5.82;;
26702;SDS011;14316;51.074;3.704;2023-07-13T02:24:11;13.20;;;5.40;;
26702;SDS011;14316;51.074;3.704;2023-07-13T02:26:42;22.80;;;6.93;;
26702;SDS011;14316;51.074;3.704;2023-07-13T02:29:11;16.08;;;5.82;;
26702;SDS011;14316;51.074;3.704;2023-07-13T02:31:37;16.58;;;5.72;;
26702;SDS011;14316;51.074;3.704;2023-07-13T02:34:03;14.43;;;5.68;;
26702;SDS011;14316;51.074;3.704;2023-07-13T02:36:30;16.90;;;5.75;;
26702;SDS011;14316;51.074;3.704;2023-07-13T02:38:56;16.88;;;5.07;;
26702;SDS011;14316;51.074;3.704;2023-07-13T02:41:22;16.17;;;6.03;;
26702;SDS011;14316;51.074;3.704;2023-07-13T02:43:48;17.35;;;6.53;;
26702;SDS011;14316;51.074;3.704;2023-07-13T02:46:14;17.65;;;6.20;;
26702;SDS011;14316;51.074;3.704;2023-07-13T02:48:40;16.13;;;5.90;;
26702;SDS011;14316;51.074;3.704;2023-07-13T02:51:06;19.55;;;6.28;;
26702;SDS011;14316;51.074;3.704;2023-07-13T02:53:33;23.60;;;6.80;;
26702;SDS011;14316;51.074;3.704;2023-07-13T02:55:58;18.17;;;5.68;;
26702;SDS011;14316;51.074;3.704;2023-07-13T02:58:25;14.77;;;6.45;;
26702;SDS011;14316;51.074;3.704;2023-07-13T03:00:50;18.17;;;6.57;;
26702;SDS011;14316;51.074;3.704;2023-07-13T03:03:16;21.42;;;6.50;;
26702;SDS011;14316;51.074;3.704;2023-07-13T03:05:43;20.30;;;6.10;;
26702;SDS011;14316;51.074;3.704;2023-07-13T03:08:10;20.20;;;6.20;;
26702;SDS011;14316;51.074;3.704;2023-07-13T03:10:37;16.77;;;6.32;;
26702;SDS011;14316;51.074;3.704;2023-07-13T03:13:04;18.55;;;6.70;;
26702;SDS011;14316;51.074;3.704;2023-07-13T03:15:30;19.63;;;6.53;;
26702;SDS011;14316;51.074;3.704;2023-07-13T03:17:56;21.83;;;6.75;;
26702;SDS011;14316;51.074;3.704;2023-07-13T03:20:22;18.65;;;6.47;;
26702;SDS011;14316;51.074;3.704;2023-07-13T03:22:48;16.60;;;5.90;;
26702;SDS011;14316;51.074;3.704;2023-07-13T03:25:13;23.08;;;6.20;;
26702;SDS011;14316;51.074;3.704;2023-07-13T03:27:39;19.08;;;6.30;;
26702;SDS011;14316;51.074;3.704;2023-07-13T03:30:05;13.60;;;5.80;;
26702;SDS011;14316;51.074;3.704;2023-07-13T03:32:31;13.98;;;5.63;;
26702;SDS011;14316;51.074;3.704;2023-07-13T03:34:58;17.38;;;5.82;;
26702;SDS011;14316;51.074;3.704;2023-07-13T03:37:24;18.92;;;5.70;;
26702;SDS011;14316;51.074;3.704;2023-07-13T03:39:50;20.88;;;6.32;;
26702;SDS011;14316;51.074;3.704;2023-07-13T03:42:15;15.60;;;5.70;;
26702;SDS011;14316;51.074;3.704;2023-07-13T03:44:41;19.73;;;6.53;;
26702;SDS011;14316;51.074;3.704;2023-07-13T03:47:11;18.38;;;5.97;;
26702;SDS011;14316;51.074;3.704;2023-07-13T03:49:37;20.38;;;5.28;;
26702;SDS011;14316;51.074;3.704;2023-07-13T03:52:03;17.00;;;6.00;;
26702;SDS011;14316;51.074;3.704;2023-07-13T03:54:29;20.25;;;6.88;;
26702;SDS011;14316;51.074;3.704;2023-07-13T03:56:54;19.60;;;6.13;;
26702;SDS011;14316;51.074;3.704;2023-07-13T03:59:21;16.85;;;6.15;;
26702;SDS011;14316;51.074;3.704;2023-07-13T04:01:46;19.13;;;6.30;;
26702;SDS011;14316;51.074;3.704;2023-07-13T04:04:12;16.23;;;5.75;;
26702;SDS011;14316;51.074;3.704;2023-07-13T04:06:38;18.42;;;6.50;;
26702;SDS011;14316;51.074;3.704;2023-07-13T04:09:04;18.58;;;6.35;;
26702;SDS011;14316;51.074;3.704;2023-07-13T04:11:34;20.15;;;5.68;;
26702;SDS011;14316;51.074;3.704;2023-07-13T04:14:01;17.17;;;6.22;;
26702;SDS011;14316;51.074;3.704;2023-07-13T04:16:27;17.15;;;6.28;;
26702;SDS011;14316;51.074;3.704;2023-07-13T04:18:54;14.23;;;5.20;;
26702;SDS011;14316;51.074;3.704;2023-07-13T04:21:24;19.48;;;6.25;;
26702;SDS011;14316;51.074;3.704;2023-07-13T04:23:51;14.68;;;5.85;;
26702;SDS011;14316;51.074;3.704;2023-07-13T04:26:17;13.93;;;5.47;;
26702;SDS011;14316;51.074;3.704;2023-07-13T04:28:46;18.10;;;5.88;;
26702;SDS011;14316;51.074;3.704;2023-07-13T04:31:14;15.85;;;5.82;;
26702;SDS011;14316;51.074;3.704;2023-07-13T04:33:40;17.23;;;6.13;;
26702;SDS011;14316;51.074;3.704;2023-07-13T04:36:06;18.77;;;5.22;;
26702;SDS011;14316;51.074;3.704;2023-07-13T04:38:32;18.95;;;5.90;;
26702;SDS011;14316;51.074;3.704;2023-07-13T04:40:59;19.65;;;5.00;;
26702;SDS011;14316;51.074;3.704;2023-07-13T04:43:26;16.23;;;5.55;;
26702;SDS011;14316;51.074;3.704;2023-07-13T04:45:53;19.50;;;6.13;;
26702;SDS011;14316;51.074;3.704;2023-07-13T04:48:19;18.15;;;5.18;;
26702;SDS011;14316;51.074;3.704;2023-07-13T04:50:45;18.85;;;5.97;;
26702;SDS011;14316;51.074;3.704;2023-07-13T04:53:12;15.88;;;5.78;;
26702;SDS011;14316;51.074;3.704;2023-07-13T04:55:38;14.77;;;5.18;;
26702;SDS011;14316;51.074;3.704;2023-07-13T04:58:04;13.60;;;5.47;;
26702;SDS011;14316;51.074;3.704;2023-07-13T05:00:30;18.38;;;5.88;;
26702;SDS011;14316;51.074;3.704;2023-07-13T05:02:57;16.35;;;6.13;;
26702;SDS011;14316;51.074;3.704;2023-07-13T05:05:24;15.80;;;5.97;;
26702;SDS011;14316;51.074;3.704;2023-07-13T05:07:51;16.35;;;5.82;;
26702;SDS011;14316;51.074;3.704;2023-07-13T05:10:17;14.90;;;5.63;;
26702;SDS011;14316;51.074;3.704;2023-07-13T05:12:43;17.92;;;5.80;;
26702;SDS011;14316;51.074;3.704;2023-07-13T05:15:09;15.02;;;5.43;;
26702;SDS011;14316;51.074;3.704;2023-07-13T05:17:35;17.90;;;5.93;;
26702;SDS011;14316;51.074;3.704;2023-07-13T05:20:01;17.40;;;5.75;;
26702;SDS011;14316;51.074;3.704;2023-07-13T05:22:26;14.70;;;5.65;;
26702;SDS011;14316;51.074;3.704;2023-07-13T05:24:53;18.63;;;5.65;;
26702;SDS011;14316;51.074;3.704;2023-07-13T05:27:18;16.98;;;5.70;;
26702;SDS011;14316;51.074;3.704;2023-07-13T05:29:44;16.42;;;6.07;;
26702;SDS011;14316;51.074;3.704;2023-07-13T05:32:10;14.85;;;5.20;;
26702;SDS011;14316;51.074;3.704;2023-07-13T05:34:35;14.05;;;5.43;;
26702;SDS011;14316;51.074;3.704;2023-07-13T05:37:01;16.45;;;5.45;;
26702;SDS011;14316;51.074;3.704;2023-07-13T05:39:27;14.45;;;5.68;;
26702;SDS011;14316;51.074;3.704;2023-07-13T05:41:53;14.52;;;5.50;;
26702;SDS011;14316;51.074;3.704;2023-07-13T05:44:18;16.52;;;5.82;;
26702;SDS011;14316;51.074;3.704;2023-07-13T05:46:44;14.10;;;5.53;;
26702;SDS011;14316;51.074;3.704;2023-07-13T05:49:10;16.05;;;6.22;;
26702;SDS011;14316;51.074;3.704;2023-07-13T05:51:36;15.77;;;5.30;;
26702;SDS011;14316;51.074;3.704;2023-07-13T05:54:02;18.20;;;6.15;;
26702;SDS011;14316;51.074;3.704;2023-07-13T05:56:28;18.52;;;5.50;;
26702;SDS011;14316;51.074;3.704;2023-07-13T05:58:54;17.73;;;5.05;;
26702;SDS011;14316;51.074;3.704;2023-07-13T06:01:20;15.52;;;5.20;;
26702;SDS011;14316;51.074;3.704;2023-07-13T06:03:47;13.50;;;5.13;;
26702;SDS011;14316;51.074;3.704;2023-07-13T06:06:13;12.85;;;5.55;;
26702;SDS011;14316;51.074;3.704;2023-07-13T06:08:38;13.02;;;4.68;;
26702;SDS011;14316;51.074;3.704;2023-07-13T06:11:05;17.33;;;5.95;;
26702;SDS011;14316;51.074;3.704;2023-07-13T06:13:39;18.15;;;5.70;;
26702;SDS011;14316;51.074;3.704;2023-07-13T06:16:05;15.77;;;5.35;;
26702;SDS011;14316;51.074;3.704;2023-07-13T06:18:32;16.98;;;5.13;;
26702;SDS011;14316;51.074;3.704;2023-07-13T06:20:58;15.00;;;4.55;;
26702;SDS011;14316;51.074;3.704;2023-07-13T06:23:24;14.68;;;5.30;;
26702;SDS011;14316;51.074;3.704;2023-07-13T06:25:51;16.50;;;5.10;;
26702;SDS011;14316;51.074;3.704;2023-07-13T06:28:17;19.70;;;5.50;;
26702;SDS011;14316;51.074;3.704;2023-07-13T06:30:42;15.88;;;5.53;;
26702;SDS011;14316;51.074;3.704;2023-07-13T06:33:08;13.75;;;5.53;;
26702;SDS011;14316;51.074;3.704;2023-07-13T06:35:34;16.15;;;5.75;;
26702;SDS011;14316;51.074;3.704;2023-07-13T06:38:00;19.25;;;5.80;;
26702;SDS011;14316;51.074;3.704;2023-07-13T06:40:27;12.85;;;5.57;;
26702;SDS011;14316;51.074;3.704;2023-07-13T06:42:54;16.95;;;4.85;;
26702;SDS011;14316;51.074;3.704;2023-07-13T06:45:19;15.73;;;5.28;;
26702;SDS011;14316;51.074;3.704;2023-07-13T06:47:45;19.50;;;6.00;;
26702;SDS011;14316;51.074;3.704;2023-07-13T06:50:11;14.30;;;5.32;;
26702;SDS011;14316;51.074;3.704;2023-07-13T06:52:37;17.45;;;5.50;;
26702;SDS011;14316;51.074;3.704;2023-07-13T06:55:02;17.50;;;5.88;;
26702;SDS011;14316;51.074;3.704;2023-07-13T06:57:28;14.40;;;5.88;;
26702;SDS011;14316;51.074;3.704;2023-07-13T06:59:54;18.58;;;5.65;;
26702;SDS011;14316;51.074;3.704;2023-07-13T07:02:20;12.65;;;5.80;;
26702;SDS011;14316;51.074;3.704;2023-07-13T07:04:46;18.60;;;6.15;;
26702;SDS011;14316;51.074;3.704;2023-07-13T07:07:11;16.63;;;6.72;;
26702;SDS011;14316;51.074;3.704;2023-07-13T07:09:37;13.45;;;5.40;;
26702;SDS011;14316;51.074;3.704;2023-07-13T07:12:03;15.10;;;5.53;;
26702;SDS011;14316;51.074;3.704;2023-07-13T07:14:29;14.52;;;5.57;;
26702;SDS011;14316;51.074;3.704;2023-07-13T07:16:54;13.38;;;5.80;;
26702;SDS011;14316;51.074;3.704;2023-07-13T07:19:20;14.68;;;5.63;;
26702;SDS011;14316;51.074;3.704;2023-07-13T07:21:46;17.73;;;5.85;;
26702;SDS011;14316;51.074;3.704;2023-07-13T07:24:11;15.10;;;4.68;;
26702;SDS011;14316;51.074;3.704;2023-07-13T07:26:38;13.48;;;5.68;;
26702;SDS011;14316;51.074;3.704;2023-07-13T07:29:03;12.27;;;5.22;;
26702;SDS011;14316;51.074;3.704;2023-07-13T07:31:29;12.05;;;4.78;;
26702;SDS011;14316;51.074;3.704;2023-07-13T07:33:55;5.45;;;2.78;;
26702;SDS011;14316;51.074;3.704;2023-07-13T07:36:20;12.82;;;4.35;;
26702;SDS011;14316;51.074;3.704;2023-07-13T07:38:46;10.43;;;4.15;;
26702;SDS011;14316;51.074;3.704;2023-07-13T07:41:12;15.65;;;5.45;;
26702;SDS011;14316;51.074;3.704;2023-07-13T07:43:38;12.13;;;4.38;;
26702;SDS011;14316;51.074;3.704;2023-07-13T07:46:03;11.82;;;4.13;;
26702;SDS011;14316;51.074;3.704;2023-07-13T07:48:29;12.13;;;3.88;;
26702;SDS011;14316;51.074;3.704;2023-07-13T07:50:56;14.25;;;4.55;;
26702;SDS011;14316;51.074;3.704;2023-07-13T07:53:21;9.25;;;3.92;;
26702;SDS011;14316;51.074;3.704;2023-07-13T07:55:47;10.10;;;4.15;;
26702;SDS011;14316;51.074;3.704;2023-07-13T07:58:13;9.07;;;4.28;;
26702;SDS011;14316;51.074;3.704;2023-07-13T08:00:39;8.43;;;3.65;;
26702;SDS011;14316;51.074;3.704;2023-07-13T08:03:06;13.00;;;4.30;;
26702;SDS011;14316;51.074;3.704;2023-07-13T08:05:31;9.23;;;3.78;;
26702;SDS011;14316;51.074;3.704;2023-07-13T08:07:59;9.65;;;4.05;;
26702;SDS011;14316;51.074;3.704;2023-07-13T08:10:25;9.13;;;3.72;;
26702;SDS011;14316;51.074;3.704;2023-07-13T08:12:51;8.52;;;3.47;;
26702;SDS011;14316;51.074;3.704;2023-07-13T08:15:18;6.40;;;3.15;;
26702;SDS011;14316;51.074;3.704;2023-07-13T08:17:45;10.30;;;3.97;;
26702;SDS011;14316;51.074;3.704;2023-07-13T08:20:14;7.03;;;2.85;;
26702;SDS011;14316;51.074;3.704;2023-07-13T08:22:40;9.02;;;2.35;;
26702;SDS011;14316;51.074;3.704;2023-07-13T08:25:06;6.78;;;2.88;;
26702;SDS011;14316;51.074;3.704;2023-07-13T08:27:33;7.53;;;3.22;;
26702;SDS011;14316;51.074;3.704;2023-07-13T08:29:58;7.88;;;3.03;;
26702;SDS011;14316;51.074;3.704;2023-07-13T08:32:24;10.32;;;3.38;;
26702;SDS011;14316;51.074;3.704;2023-07-13T08:34:50;8.30;;;2.90;;
26702;SDS011;14316;51.074;3.704;2023-07-13T08:37:17;7.63;;;3.20;;
26702;SDS011;14316;51.074;3.704;2023-07-13T08:39:43;10.80;;;3.50;;
26702;SDS011;14316;51.074;3.704;2023-07-13T08:47:19;7.97;;;2.83;;
26702;SDS011;14316;51.074;3.704;2023-07-13T08:49:48;6.68;;;3.22;;
26702;SDS011;14316;51.074;3.704;2023-07-13T08:52:22;9.90;;;3.10;;
26702;SDS011;14316;51.074;3.704;2023-07-13T08:55:03;9.50;;;3.10;;
26702;SDS011;14316;51.074;3.704;2023-07-13T08:57:41;6.53;;;3.22;;
26702;SDS011;14316;51.074;3.704;2023-07-13T09:00:10;7.57;;;2.85;;
26702;SDS011;14316;51.074;3.704;2023-07-13T09:05:41;8.52;;;3.40;;
26702;SDS011;14316;51.074;3.704;2023-07-13T09:11:02;6.60;;;2.80;;
26702;SDS011;14316;51.074;3.704;2023-07-13T09:16:29;9.10;;;3.35;;
26702;SDS011;14316;51.074;3.704;2023-07-13T09:18:56;8.60;;;3.63;;
26702;SDS011;14316;51.074;3.704;2023-07-13T09:23:56;9.50;;;3.17;;
26702;SDS011;14316;51.074;3.704;2023-07-13T09:26:27;8.77;;;2.95;;
26702;SDS011;14316;51.074;3.704;2023-07-13T09:29:38;7.60;;;3.47;;
26702;SDS011;14316;51.074;3.704;2023-07-13T09:31:53;8.52;;;4.25;;
26702;SDS011;14316;51.074;3.704;2023-07-13T09:34:23;8.70;;;3.33;;
26702;SDS011;14316;51.074;3.704;2023-07-13T09:36:49;5.40;;;3.03;;
26702;SDS011;14316;51.074;3.704;2023-07-13T09:41:57;8.95;;;2.90;;
26702;SDS011;14316;51.074;3.704;2023-07-13T09:44:38;6.60;;;3.40;;
26702;SDS011;14316;51.074;3.704;2023-07-13T09:47:17;6.00;;;2.92;;
26702;SDS011;14316;51.074;3.704;2023-07-13T09:49:44;9.50;;;3.25;;
26702;SDS011;14316;51.074;3.704;2023-07-13T09:52:11;9.43;;;3.53;;
26702;SDS011;14316;51.074;3.704;2023-07-13T09:54:39;9.18;;;3.35;;
26702;SDS011;14316;51.074;3.704;2023-07-13T09:57:15;7.68;;;2.78;;
26702;SDS011;14316;51.074;3.704;2023-07-13T09:59:43;9.82;;;3.13;;
26702;SDS011;14316;51.074;3.704;2023-07-13T10:05:01;9.15;;;3.20;;
26702;SDS011;14316;51.074;3.704;2023-07-13T10:07:28;6.82;;;2.30;;
26702;SDS011;14316;51.074;3.704;2023-07-13T10:09:58;6.38;;;3.00;;
26702;SDS011;14316;51.074;3.704;2023-07-13T10:12:25;7.10;;;3.13;;
26702;SDS011;14316;51.074;3.704;2023-07-13T10:14:56;6.93;;;3.10;;
26702;SDS011;14316;51.074;3.704;2023-07-13T10:17:31;8.18;;;3.05;;
26702;SDS011;14316;51.074;3.704;2023-07-13T10:20:01;7.25;;;3.25;;
26702;SDS011;14316;51.074;3.704;2023-07-13T10:25:00;6.03;;;2.65;;
26702;SDS011;14316;51.074;3.704;2023-07-13T10:27:32;5.15;;;2.70;;
26702;SDS011;14316;51.074;3.704;2023-07-13T10:30:11;6.65;;;3.05;;
26702;SDS011;14316;51.074;3.704;2023-07-13T10:32:38;5.88;;;2.78;;
26702;SDS011;14316;51.074;3.704;2023-07-13T10:35:04;6.05;;;2.85;;
26702;SDS011;14316;51.074;3.704;2023-07-13T10:37:41;5.97;;;2.60;;
26702;SDS011;14316;51.074;3.704;2023-07-13T10:40:16;8.40;;;3.88;;
26702;SDS011;14316;51.074;3.704;2023-07-13T10:42:49;8.02;;;3.10;;
26702;SDS011;14316;51.074;3.704;2023-07-13T10:45:18;6.53;;;3.28;;
26702;SDS011;14316;51.074;3.704;2023-07-13T10:47:46;7.80;;;3.63;;
26702;SDS011;14316;51.074;3.704;2023-07-13T10:50:16;7.50;;;3.22;;
26702;SDS011;14316;51.074;3.704;2023-07-13T10:52:47;9.00;;;4.20;;
26702;SDS011;14316;51.074;3.704;2023-07-13T10:55:32;7.97;;;4.32;;
26702;SDS011;14316;51.074;3.704;2023-07-13T10:58:03;7.70;;;4.75;;
26702;SDS011;14316;51.074;3.704;2023-07-13T11:00:46;8.48;;;5.00;;
26702;SDS011;14316;51.074;3.704;2023-07-13T11:03:19;8.48;;;5.20;;
26702;SDS011;14316;51.074;3.704;2023-07-13T11:05:50;10.15;;;5.47;;
26702;SDS011;14316;51.074;3.704;2023-07-13T11:10:55;8.55;;;4.75;;
26702;SDS011;14316;51.074;3.704;2023-07-13T11:18:44;7.07;;;5.68;;
26702;SDS011;14316;51.074;3.704;2023-07-13T11:21:15;8.52;;;4.95;;
26702;SDS011;14316;51.074;3.704;2023-07-13T11:23:44;8.25;;;5.30;;
26702;SDS011;14316;51.074;3.704;2023-07-13T11:31:42;13.35;;;7.97;;
26702;SDS011;14316;51.074;3.704;2023-07-13T11:34:16;7.18;;;4.35;;
26702;SDS011;14316;51.074;3.704;2023-07-13T11:36:46;9.30;;;5.18;;
26702;SDS011;14316;51.074;3.704;2023-07-13T11:39:16;10.02;;;4.75;;
26702;SDS011;14316;51.074;3.704;2023-07-13T11:41:51;4.38;;;3.92;;
26702;SDS011;14316;51.074;3.704;2023-07-13T11:44:21;7.60;;;3.83;;
26702;SDS011;14316;51.074;3.704;2023-07-13T11:46:53;5.55;;;3.80;;
26702;SDS011;14316;51.074;3.704;2023-07-13T11:49:21;7.03;;;3.37;;
26702;SDS011;14316;51.074;3.704;2023-07-13T11:51:48;5.82;;;3.10;;
26702;SDS011;14316;51.074;3.704;2023-07-13T11:59:52;4.68;;;3.50;;
26702;SDS011;14316;51.074;3.704;2023-07-13T12:02:33;5.45;;;3.35;;
26702;SDS011;14316;51.074;3.704;2023-07-13T12:05:09;5.72;;;3.20;;
26702;SDS011;14316;51.074;3.704;2023-07-13T12:07:38;7.15;;;4.30;;
26702;SDS011;14316;51.074;3.704;2023-07-13T12:10:17;6.43;;;3.60;;
26702;SDS011;14316;51.074;3.704;2023-07-13T12:12:57;9.48;;;4.40;;
26702;SDS011;14316;51.074;3.704;2023-07-13T12:15:30;6.35;;;3.97;;
26702;SDS011;14316;51.074;3.704;2023-07-13T12:18:01;6.55;;;3.60;;
26702;SDS011;14316;51.074;3.704;2023-07-13T12:20:28;7.38;;;3.60;;
26702;SDS011;14316;51.074;3.704;2023-07-13T12:23:04;4.30;;;3.10;;
26702;SDS011;14316;51.074;3.704;2023-07-13T12:25:31;5.35;;;3.00;;
26702;SDS011;14316;51.074;3.704;2023-07-13T12:27:56;7.82;;;3.03;;
26702;SDS011;14316;51.074;3.704;2023-07-13T12:30:29;5.07;;;3.15;;
26702;SDS011;14316;51.074;3.704;2023-07-13T12:33:07;7.75;;;2.55;;
26702;SDS011;14316;51.074;3.704;2023-07-13T12:35:49;5.60;;;2.75;;
26702;SDS011;14316;51.074;3.704;2023-07-13T12:38:17;5.68;;;2.50;;
26702;SDS011;14316;51.074;3.704;2023-07-13T12:40:45;5.13;;;2.40;;
26702;SDS011;14316;51.074;3.704;2023-07-13T12:43:15;6.28;;;2.92;;
26702;SDS011;14316;51.074;3.704;2023-07-13T12:48:47;6.07;;;3.25;;
26702;SDS011;14316;51.074;3.704;2023-07-13T12:51:15;8.40;;;3.43;;
26702;SDS011;14316;51.074;3.704;2023-07-13T12:53:42;7.88;;;3.33;;
26702;SDS011;14316;51.074;3.704;2023-07-13T12:56:17;5.82;;;3.28;;
26702;SDS011;14316;51.074;3.704;2023-07-13T12:58:45;7.57;;;2.95;;
26702;SDS011;14316;51.074;3.704;2023-07-13T13:01:19;6.25;;;2.40;;
26702;SDS011;14316;51.074;3.704;2023-07-13T13:03:48;6.50;;;2.92;;
26702;SDS011;14316;51.074;3.704;2023-07-13T13:06:25;6.53;;;2.90;;
26702;SDS011;14316;51.074;3.704;2023-07-13T13:08:55;5.88;;;2.70;;
26702;SDS011;14316;51.074;3.704;2023-07-13T13:11:23;4.93;;;2.75;;
26702;SDS011;14316;51.074;3.704;2023-07-13T13:13:51;3.92;;;2.35;;
26702;SDS011;14316;51.074;3.704;2023-07-13T13:16:22;3.97;;;2.10;;
26702;SDS011;14316;51.074;3.704;2023-07-13T13:18:52;3.22;;;2.08;;
26702;SDS011;14316;51.074;3.704;2023-07-13T13:21:22;4.00;;;2.13;;
26702;SDS011;14316;51.074;3.704;2023-07-13T13:23:50;5.57;;;2.40;;
26702;SDS011;14316;51.074;3.704;2023-07-13T13:26:17;4.47;;;2.20;;
26702;SDS011;14316;51.074;3.704;2023-07-13T13:28:44;5.00;;;2.40;;
26702;SDS011;14316;51.074;3.704;2023-07-13T13:31:11;4.20;;;2.00;;
26702;SDS011;14316;51.074;3.704;2023-07-13T13:33:43;6.10;;;2.15;;
26702;SDS011;14316;51.074;3.704;2023-07-13T13:36:15;5.18;;;2.40;;
26702;SDS011;14316;51.074;3.704;2023-07-13T13:38:43;4.95;;;2.28;;
26702;SDS011;14316;51.074;3.704;2023-07-13T13:41:09;4.03;;;2.13;;
26702;SDS011;14316;51.074;3.704;2023-07-13T13:43:49;4.10;;;1.95;;
26702;SDS011;14316;51.074;3.704;2023-07-13T13:46:16;3.40;;;1.73;;
26702;SDS011;14316;51.074;3.704;2023-07-13T13:48:44;3.85;;;2.00;;
26702;SDS011;14316;51.074;3.704;2023-07-13T13:53:41;4.00;;;1.90;;
26702;SDS011;14316;51.074;3.704;2023-07-13T13:56:07;4.40;;;1.92;;
26702;SDS011;14316;51.074;3.704;2023-07-13T13:58:34;2.97;;;1.83;;
26702;SDS011;14316;51.074;3.704;2023-07-13T14:01:00;2.83;;;1.90;;
26702;SDS011;14316;51.074;3.704;2023-07-13T14:03:26;2.67;;;2.08;;
26702;SDS011;14316;51.074;3.704;2023-07-13T14:05:53;2.33;;;1.75;;
26702;SDS011;14316;51.074;3.704;2023-07-13T14:08:20;3.20;;;1.80;;
26702;SDS011;14316;51.074;3.704;2023-07-13T14:10:47;4.47;;;2.03;;
26702;SDS011;14316;51.074;3.704;2023-07-13T14:13:17;4.47;;;2.00;;
26702;SDS011;14316;51.074;3.704;2023-07-13T14:15:48;4.97;;;1.90;;
26702;SDS011;14316;51.074;3.704;2023-07-13T14:18:14;3.78;;;1.80;;
26702;SDS011;14316;51.074;3.704;2023-07-13T14:20:43;4.28;;;1.67;;
26702;SDS011;14316;51.074;3.704;2023-07-13T14:23:11;2.38;;;1.83;;
26702;SDS011;14316;51.074;3.704;2023-07-13T14:25:38;2.58;;;1.60;;
26702;SDS011;14316;51.074;3.704;2023-07-13T14:28:10;3.72;;;2.03;;
26702;SDS011;14316;51.074;3.704;2023-07-13T14:30:48;3.83;;;2.05;;
26702;SDS011;14316;51.074;3.704;2023-07-13T14:33:14;3.60;;;1.80;;
26702;SDS011;14316;51.074;3.704;2023-07-13T14:35:41;3.05;;;1.90;;
26702;SDS011;14316;51.074;3.704;2023-07-13T14:38:17;2.53;;;1.70;;
26702;SDS011;14316;51.074;3.704;2023-07-13T14:40:45;3.25;;;1.80;;
26702;SDS011;14316;51.074;3.704;2023-07-13T14:43:15;6.95;;;1.80;;
26702;SDS011;14316;51.074;3.704;2023-07-13T14:45:44;2.75;;;1.58;;
26702;SDS011;14316;51.074;3.704;2023-07-13T14:48:19;3.10;;;1.70;;
26702;SDS011;14316;51.074;3.704;2023-07-13T14:50:49;2.53;;;1.60;;
26702;SDS011;14316;51.074;3.704;2023-07-13T14:53:21;3.85;;;1.88;;
26702;SDS011;14316;51.074;3.704;2023-07-13T14:55:47;6.75;;;2.10;;
26702;SDS011;14316;51.074;3.704;2023-07-13T14:58:13;4.15;;;1.75;;
26702;SDS011;14316;51.074;3.704;2023-07-13T15:00:38;4.88;;;2.22;;
26702;SDS011;14316;51.074;3.704;2023-07-13T15:03:05;2.63;;;1.55;;
26702;SDS011;14316;51.074;3.704;2023-07-13T15:05:47;4.40;;;2.40;;
26702;SDS011;14316;51.074;3.704;2023-07-13T15:08:13;2.13;;;1.45;;
26702;SDS011;14316;51.074;3.704;2023-07-13T15:10:40;4.15;;;1.80;;
26702;SDS011;14316;51.074;3.704;2023-07-13T15:13:17;2.75;;;1.90;;
26702;SDS011;14316;51.074;3.704;2023-07-13T15:15:47;3.35;;;1.92;;
26702;SDS011;14316;51.074;3.704;2023-07-13T15:18:16;4.63;;;1.90;;
26702;SDS011;14316;51.074;3.704;2023-07-13T15:20:44;2.92;;;1.98;;
26702;SDS011;14316;51.074;3.704;2023-07-13T15:23:12;3.85;;;1.90;;
26702;SDS011;14316;51.074;3.704;2023-07-13T15:25:39;3.88;;;1.70;;
26702;SDS011;14316;51.074;3.704;2023-07-13T15:28:06;5.50;;;1.90;;
26702;SDS011;14316;51.074;3.704;2023-07-13T15:30:35;2.30;;;1.48;;
26702;SDS011;14316;51.074;3.704;2023-07-13T15:33:13;4.60;;;1.70;;
26702;SDS011;14316;51.074;3.704;2023-07-13T15:35:53;4.63;;;1.92;;
26702;SDS011;14316;51.074;3.704;2023-07-13T15:38:22;2.63;;;1.85;;